createdAt,value
2018-09-01T00:01:18.481Z,4.57
2018-09-01T00:03:47.469Z,7.03
2018-09-01T00:06:16.523Z,5.07
2018-09-01T00:08:45.539Z,4.77
2018-09-01T00:11:14.591Z,5.97
2018-09-01T00:13:43.771Z,5.60
2018-09-01T00:16:12.780Z,5.67
2018-09-01T00:18:41.870Z,5.50
2018-09-01T00:21:10.878Z,5.90
2018-09-01T00:23:39.916Z,4.67
2018-09-01T00:26:08.990Z,5.67
2018-09-01T00:28:38.034Z,5.17
2018-09-01T00:31:07.109Z,7.90
2018-09-01T00:33:36.132Z,3.77
2018-09-01T00:36:05.754Z,5.83
2018-09-01T00:38:46.723Z,8.13
2018-09-01T00:41:15.729Z,5.33
2018-09-01T00:43:44.719Z,12.30
2018-09-01T00:46:13.742Z,6.97
2018-09-01T00:48:42.784Z,9.23
2018-09-01T00:51:11.775Z,6.03
2018-09-01T00:53:40.906Z,7.13
2018-09-01T00:56:09.992Z,6.23
2018-09-01T00:58:39.067Z,7.57
2018-09-01T01:01:08.087Z,6.57
2018-09-01T01:03:37.180Z,5.07
2018-09-01T01:06:06.193Z,5.40
2018-09-01T01:08:35.427Z,5.97
2018-09-01T01:11:04.740Z,6.43
2018-09-01T01:13:33.773Z,7.37
2018-09-01T01:16:03.052Z,5.77
2018-09-01T01:18:32.104Z,7.83
2018-09-01T01:21:01.141Z,6.90
2018-09-01T01:23:30.184Z,6.93
2018-09-01T01:25:59.223Z,8.17
2018-09-01T01:28:28.232Z,5.93
2018-09-01T01:30:57.278Z,6.83
2018-09-01T01:33:26.336Z,6.23
2018-09-01T01:35:55.332Z,6.80
2018-09-01T01:38:24.714Z,5.43
2018-09-01T01:40:53.707Z,6.20
2018-09-01T01:43:22.724Z,6.73
2018-09-01T01:45:51.725Z,7.17
2018-09-01T01:48:20.805Z,6.73
2018-09-01T01:50:49.809Z,6.57
2018-09-01T01:53:18.963Z,4.50
2018-09-01T01:55:47.988Z,7.50
2018-09-01T01:58:16.989Z,6.07
2018-09-01T02:00:46.005Z,6.73
2018-09-01T02:03:14.999Z,5.67
2018-09-01T02:05:43.990Z,6.93
2018-09-01T02:08:13.090Z,9.60
2018-09-01T02:10:42.104Z,6.57
2018-09-01T02:13:11.314Z,6.57
2018-09-01T02:15:40.356Z,7.83
2018-09-01T02:18:09.330Z,5.83
2018-09-01T02:20:38.369Z,6.83
2018-09-01T02:23:07.437Z,5.20
2018-09-01T02:25:37.185Z,5.70
2018-09-01T02:28:08.135Z,6.77
2018-09-01T02:30:37.184Z,6.30
2018-09-01T02:33:06.238Z,8.73
2018-09-01T02:35:35.226Z,6.43
2018-09-01T02:38:04.233Z,5.57
2018-09-01T02:40:33.256Z,4.87
2018-09-01T02:43:02.262Z,4.97
2018-09-01T02:45:31.531Z,8.47
2018-09-01T02:48:00.628Z,5.53
2018-09-01T02:50:29.682Z,5.93
2018-09-01T02:53:01.601Z,5.47
2018-09-01T02:55:30.611Z,5.93
2018-09-01T02:57:59.669Z,5.20
2018-09-01T03:00:34.042Z,5.57
2018-09-01T03:03:03.106Z,7.10
2018-09-01T03:05:32.132Z,7.83
2018-09-01T03:08:01.643Z,6.13
2018-09-01T03:10:30.901Z,7.47
2018-09-01T03:13:00.193Z,7.30
2018-09-01T03:15:29.248Z,6.10
2018-09-01T03:17:58.294Z,8.07
2018-09-01T03:20:27.652Z,8.13
2018-09-01T03:22:56.671Z,6.03
2018-09-01T03:25:25.680Z,8.50
2018-09-01T03:27:54.695Z,6.23
2018-09-01T03:30:23.746Z,6.00
2018-09-01T03:32:52.752Z,6.63
2018-09-01T03:35:21.775Z,4.50
2018-09-01T03:37:51.164Z,6.70
2018-09-01T03:40:20.173Z,7.70
2018-09-01T03:42:49.151Z,6.60
2018-09-01T03:45:18.381Z,6.23
2018-09-01T03:47:47.519Z,5.23
2018-09-01T03:50:16.510Z,7.83
2018-09-01T03:52:45.559Z,5.97
2018-09-01T03:55:14.633Z,6.10
2018-09-01T03:57:43.760Z,6.67
2018-09-01T04:00:13.204Z,7.60
2018-09-01T04:02:42.312Z,6.53
2018-09-01T04:05:11.322Z,7.63
2018-09-01T04:07:40.380Z,6.60
2018-09-01T04:10:09.415Z,8.27
2018-09-01T04:12:38.451Z,9.37
2018-09-01T04:15:07.509Z,7.03
2018-09-01T04:17:36.564Z,9.23
2018-09-01T04:20:06.061Z,5.63
2018-09-01T04:22:35.071Z,7.33
2018-09-01T04:25:04.448Z,7.53
2018-09-01T04:27:33.449Z,7.83
2018-09-01T04:30:02.463Z,7.17
2018-09-01T04:32:31.487Z,6.10
2018-09-01T04:35:00.831Z,7.50
2018-09-01T04:37:29.827Z,5.90
2018-09-01T04:39:58.824Z,5.83
2018-09-01T04:42:27.914Z,6.33
2018-09-01T04:44:56.884Z,6.67
2018-09-01T04:47:25.949Z,10.07
2018-09-01T04:49:55.181Z,8.67
2018-09-01T04:52:24.201Z,7.40
2018-09-01T04:54:53.256Z,6.97
2018-09-01T04:57:22.224Z,9.13
2018-09-01T04:59:51.266Z,7.73
2018-09-01T05:02:20.328Z,8.07
2018-09-01T05:04:49.356Z,5.23
2018-09-01T05:07:18.375Z,5.93
2018-09-01T05:09:47.407Z,7.30
2018-09-01T05:12:16.434Z,6.53
2018-09-01T05:14:45.469Z,5.70
2018-09-01T05:17:14.457Z,7.70
2018-09-01T05:19:43.467Z,4.57
2018-09-01T05:22:12.539Z,6.17
2018-09-01T05:24:41.568Z,6.37
2018-09-01T05:27:10.574Z,6.60
2018-09-01T05:29:39.632Z,6.97
2018-09-01T05:32:08.661Z,4.27
2018-09-01T05:34:37.667Z,6.27
2018-09-01T05:37:06.732Z,6.47
2018-09-01T05:39:35.742Z,7.37
2018-09-01T05:42:04.800Z,6.37
2018-09-01T05:44:33.816Z,5.27
2018-09-01T05:47:02.939Z,8.37
2018-09-01T05:49:32.022Z,5.10
2018-09-01T05:52:01.083Z,6.73
2018-09-01T05:54:30.331Z,8.47
2018-09-01T05:56:59.489Z,5.97
2018-09-01T05:59:28.545Z,5.90
2018-09-01T06:01:57.548Z,5.77
2018-09-01T06:04:26.812Z,8.80
2018-09-01T06:06:55.891Z,7.60
2018-09-01T06:09:24.885Z,6.17
2018-09-01T06:11:53.889Z,10.07
2018-09-01T06:14:22.956Z,6.83
2018-09-01T06:16:51.963Z,7.27
2018-09-01T06:19:21.100Z,9.63
2018-09-01T06:21:50.230Z,6.27
2018-09-01T06:24:19.259Z,4.70
2018-09-01T06:26:48.252Z,6.07
2018-09-01T06:29:18.642Z,6.03
2018-09-01T06:31:51.737Z,6.27
2018-09-01T06:34:20.972Z,5.27
2018-09-01T06:36:50.146Z,5.13
2018-09-01T06:39:19.143Z,6.40
2018-09-01T06:41:48.175Z,7.47
2018-09-01T06:44:17.204Z,7.20
2018-09-01T06:46:46.562Z,6.90
2018-09-01T06:49:16.027Z,9.13
2018-09-01T06:51:45.082Z,5.40
2018-09-01T06:54:14.149Z,7.50
2018-09-01T06:56:43.264Z,6.17
2018-09-01T06:59:12.321Z,6.37
2018-09-01T07:01:41.388Z,5.57
2018-09-01T07:04:10.522Z,4.90
2018-09-01T07:06:39.545Z,6.07
2018-09-01T07:09:08.907Z,6.60
2018-09-01T07:11:38.120Z,6.83
2018-09-01T07:14:07.832Z,5.83
2018-09-01T07:16:36.823Z,6.87
2018-09-01T07:19:06.860Z,5.37
2018-09-01T07:21:39.449Z,6.10
2018-09-01T07:24:09.590Z,6.33
2018-09-01T07:26:39.627Z,5.20
2018-09-01T07:29:08.669Z,7.77
2018-09-01T07:31:38.270Z,5.37
2018-09-01T07:34:07.230Z,5.60
2018-09-01T07:36:36.289Z,3.33
2018-09-01T07:39:06.620Z,5.97
2018-09-01T07:41:35.642Z,5.97
2018-09-01T07:44:04.684Z,6.53
2018-09-01T07:46:33.985Z,7.00
2018-09-01T07:49:03.283Z,4.50
2018-09-01T07:51:32.396Z,6.57
2018-09-01T07:54:01.383Z,7.33
2018-09-01T07:56:30.425Z,6.80
2018-09-01T07:58:59.663Z,14.60
2018-09-01T08:01:28.726Z,6.40
2018-09-01T08:03:57.727Z,7.17
2018-09-01T08:06:26.820Z,7.33
2018-09-01T08:08:55.882Z,12.67
2018-09-01T08:11:24.980Z,9.47
2018-09-01T08:13:54.150Z,7.40
2018-09-01T08:16:23.314Z,8.10
2018-09-01T08:18:52.587Z,7.17
2018-09-01T08:21:21.699Z,9.60
2018-09-01T08:24:09.016Z,6.43
2018-09-01T08:26:40.321Z,6.93
2018-09-01T08:29:10.406Z,10.17
2018-09-01T08:31:46.481Z,6.83
2018-09-01T08:34:15.536Z,6.97
2018-09-01T08:36:44.879Z,5.67
2018-09-01T08:39:14.189Z,3.73
2018-09-01T08:41:43.251Z,9.03
2018-09-01T08:44:12.747Z,5.67
2018-09-01T08:46:41.845Z,5.37
2018-09-01T08:49:14.591Z,4.13
2018-09-01T08:51:44.983Z,5.77
2018-09-01T08:54:14.327Z,5.93
2018-09-01T08:56:43.464Z,7.63
2018-09-01T08:59:12.648Z,6.27
2018-09-01T09:01:41.686Z,5.43
2018-09-01T09:04:10.736Z,8.07
2018-09-01T09:06:40.140Z,6.43
2018-09-01T09:09:09.180Z,4.67
2018-09-01T09:11:38.291Z,5.47
2018-09-01T09:14:08.716Z,3.63
2018-09-01T09:16:37.751Z,6.37
2018-09-01T09:19:06.743Z,5.20
2018-09-01T09:21:35.839Z,8.97
2018-09-01T09:24:04.999Z,8.13
2018-09-01T09:26:34.102Z,5.03
2018-09-01T09:29:03.435Z,5.53
2018-09-01T09:31:32.538Z,5.20
2018-09-01T09:34:01.647Z,6.30
2018-09-01T09:36:30.753Z,6.67
2018-09-01T09:38:59.772Z,5.53
2018-09-01T09:41:28.952Z,6.73
2018-09-01T09:43:58.049Z,6.03
2018-09-01T09:46:27.042Z,6.10
2018-09-01T09:48:56.141Z,5.67
2018-09-01T09:51:25.142Z,5.50
2018-09-01T09:53:54.162Z,5.77
2018-09-01T09:56:23.280Z,5.83
2018-09-01T09:58:52.392Z,5.57
2018-09-01T10:01:26.755Z,4.03
2018-09-01T10:03:55.875Z,5.33
2018-09-01T10:06:25.115Z,6.00
2018-09-01T10:08:54.148Z,7.67
2018-09-01T10:11:23.227Z,4.13
2018-09-01T10:13:52.686Z,4.93
2018-09-01T10:16:21.693Z,5.67
2018-09-01T10:18:50.703Z,5.40
2018-09-01T10:21:19.744Z,5.67
2018-09-01T10:23:48.812Z,4.90
2018-09-01T10:26:17.855Z,5.50
2018-09-01T10:28:46.909Z,7.13
2018-09-01T10:31:16.192Z,3.87
2018-09-01T10:33:45.271Z,5.73
2018-09-01T10:36:14.358Z,6.40
2018-09-01T10:38:43.643Z,7.43
2018-09-01T10:41:12.722Z,3.60
2018-09-01T10:43:41.763Z,4.07
2018-09-01T10:46:10.914Z,5.73
2018-09-01T10:48:40.041Z,5.57
2018-09-01T10:51:09.048Z,5.33
2018-09-01T10:53:38.320Z,6.47
2018-09-01T10:56:07.337Z,3.23
2018-09-01T10:58:36.482Z,4.37
2018-09-01T11:01:05.884Z,6.23
2018-09-01T11:03:34.977Z,3.77
2018-09-01T11:06:04.100Z,4.10
2018-09-01T11:08:33.125Z,3.37
2018-09-01T11:11:02.656Z,3.70
2018-09-01T11:13:31.927Z,4.23
2018-09-01T11:16:01.535Z,3.08
2018-09-01T11:18:31.277Z,3.10
2018-09-01T11:21:01.163Z,3.05
2018-09-01T11:23:30.916Z,4.15
2018-09-01T11:26:00.515Z,6.95
2018-09-01T11:28:30.091Z,3.52
2018-09-01T11:30:59.182Z,4.00
2018-09-01T11:33:28.386Z,4.63
2018-09-01T11:35:57.463Z,2.80
2018-09-01T11:38:26.572Z,2.63
2018-09-01T11:40:55.779Z,4.63
2018-09-01T11:43:25.476Z,3.37
2018-09-01T11:45:55.174Z,4.33
2018-09-01T11:48:25.011Z,3.80
2018-09-01T11:50:54.758Z,3.02
2018-09-01T11:53:24.473Z,4.85
2018-09-01T11:55:53.463Z,10.53
2018-09-01T11:58:22.823Z,4.23
2018-09-01T12:00:51.947Z,3.87
2018-09-01T12:03:21.184Z,3.67
2018-09-01T12:05:50.245Z,3.47
2018-09-01T12:08:19.297Z,3.00
2018-09-01T12:10:48.368Z,8.87
2018-09-01T12:13:17.378Z,3.77
2018-09-01T12:15:46.462Z,3.23
2018-09-01T12:18:15.536Z,4.23
2018-09-01T12:20:44.218Z,2.23
2018-09-01T12:23:13.255Z,4.17
2018-09-01T12:25:42.287Z,3.23
2018-09-01T12:28:11.998Z,5.83
2018-09-01T12:30:41.857Z,4.12
2018-09-01T12:33:11.464Z,3.58
2018-09-01T12:35:41.275Z,2.98
2018-09-01T12:38:10.841Z,3.45
2018-09-01T12:40:40.462Z,4.37
2018-09-01T12:43:10.077Z,5.20
2018-09-01T12:45:39.707Z,6.12
2018-09-01T12:48:09.322Z,4.40
2018-09-01T12:50:38.985Z,3.10
2018-09-01T12:53:08.637Z,3.50
2018-09-01T12:55:38.505Z,2.58
2018-09-01T12:58:08.270Z,2.72
2018-09-01T13:00:37.914Z,3.22
2018-09-01T13:03:07.818Z,5.12
2018-09-01T13:05:37.576Z,3.05
2018-09-01T13:08:07.843Z,3.33
2018-09-01T13:10:37.768Z,5.45
2018-09-01T13:13:07.623Z,3.77
2018-09-01T13:15:37.283Z,2.77
2018-09-01T13:18:06.430Z,3.67
2018-09-01T13:20:35.454Z,6.63
2018-09-01T13:23:05.190Z,4.50
2018-09-01T13:25:35.924Z,2.87
2018-09-01T13:28:05.188Z,4.37
2018-09-01T13:30:34.295Z,3.83
2018-09-01T13:33:04.233Z,3.45
2018-09-01T13:35:34.047Z,3.98
2018-09-01T13:38:03.751Z,3.15
2018-09-01T13:40:33.370Z,2.12
2018-09-01T13:43:02.979Z,3.45
2018-09-01T13:45:32.559Z,4.42
2018-09-01T13:48:02.130Z,2.55
2018-09-01T13:50:31.943Z,3.02
2018-09-01T13:53:01.709Z,2.33
2018-09-01T13:55:31.290Z,2.90
2018-09-01T13:58:00.855Z,3.60
2018-09-01T14:00:30.473Z,3.58
2018-09-01T14:03:00.085Z,4.12
2018-09-01T14:05:29.692Z,2.80
2018-09-01T14:07:59.327Z,3.22
2018-09-01T14:10:29.326Z,2.85
2018-09-01T14:12:59.029Z,2.77
2018-09-01T14:15:28.642Z,4.67
2018-09-01T14:17:58.321Z,6.08
2018-09-01T14:20:28.369Z,2.47
2018-09-01T14:22:58.007Z,2.17
2018-09-01T14:25:27.680Z,3.50
2018-09-01T14:27:57.502Z,3.30
2018-09-01T14:30:27.194Z,3.65
2018-09-01T14:32:56.827Z,2.55
2018-09-01T14:35:26.645Z,3.10
2018-09-01T14:37:56.269Z,3.85
2018-09-01T14:40:25.909Z,2.75
2018-09-01T14:42:55.553Z,2.08
2018-09-01T14:45:25.786Z,2.42
2018-09-01T14:47:55.559Z,2.55
2018-09-01T14:50:25.389Z,1.90
2018-09-01T14:52:55.350Z,2.60
2018-09-01T14:55:24.958Z,3.72
2018-09-01T14:57:54.714Z,2.20
2018-09-01T15:00:24.514Z,3.83
2018-09-01T15:02:54.199Z,3.10
2018-09-01T15:05:23.947Z,2.08
2018-09-01T15:07:53.541Z,3.45
2018-09-01T15:10:23.750Z,2.30
2018-09-01T15:12:54.660Z,2.58
2018-09-01T15:15:24.593Z,2.70
2018-09-01T15:17:54.312Z,3.67
2018-09-01T15:20:23.975Z,2.67
2018-09-01T15:22:53.760Z,3.25
2018-09-01T15:25:23.384Z,3.15
2018-09-01T15:27:52.997Z,4.00
2018-09-01T15:30:22.662Z,3.75
2018-09-01T15:32:52.238Z,3.65
2018-09-01T15:35:21.859Z,2.20
2018-09-01T15:37:51.685Z,2.08
2018-09-01T15:40:21.482Z,3.40
2018-09-01T15:42:51.932Z,2.52
2018-09-01T15:45:21.500Z,2.55
2018-09-01T15:47:51.332Z,1.85
2018-09-01T15:50:21.129Z,2.52
2018-09-01T15:52:50.683Z,2.30
2018-09-01T15:55:20.626Z,2.87
2018-09-01T15:57:50.235Z,2.55
2018-09-01T16:00:19.844Z,3.37
2018-09-01T16:02:49.408Z,4.22
2018-09-01T16:05:19.048Z,2.47
2018-09-01T16:07:48.627Z,2.02
2018-09-01T16:10:18.197Z,2.95
2018-09-01T16:12:47.853Z,2.75
2018-09-01T16:15:17.559Z,2.17
2018-09-01T16:17:47.175Z,3.20
2018-09-01T16:20:16.762Z,3.30
2018-09-01T16:22:46.365Z,1.67
2018-09-01T16:25:15.969Z,2.70
2018-09-01T16:27:45.594Z,3.37
2018-09-01T16:30:15.201Z,2.58
2018-09-01T16:32:44.828Z,2.33
2018-09-01T16:35:14.620Z,1.50
2018-09-01T16:37:44.442Z,4.03
2018-09-01T16:40:14.185Z,3.27
2018-09-01T16:42:44.114Z,3.62
2018-09-01T16:45:13.821Z,2.22
2018-09-01T16:47:43.740Z,3.33
2018-09-01T16:50:13.504Z,2.20
2018-09-01T16:52:43.130Z,1.50
2018-09-01T16:55:12.731Z,2.52
2018-09-01T16:57:42.342Z,2.65
2018-09-01T17:00:12.057Z,2.87
2018-09-01T17:02:41.797Z,2.65
2018-09-01T17:05:11.640Z,2.25
2018-09-01T17:07:41.585Z,2.65
2018-09-01T17:10:10.794Z,2.60
2018-09-01T17:12:39.884Z,3.97
2018-09-01T17:15:09.554Z,4.83
2018-09-01T17:17:38.791Z,2.80
2018-09-01T17:20:07.852Z,3.07
2018-09-01T17:22:36.849Z,5.57
2018-09-01T17:25:06.691Z,2.50
2018-09-01T17:27:35.705Z,2.97
2018-09-01T17:30:05.853Z,2.97
2018-09-01T17:32:34.873Z,2.70
2018-09-01T17:35:04.392Z,3.83
2018-09-01T17:37:33.418Z,5.97
2018-09-01T17:40:02.498Z,5.77
2018-09-01T17:42:31.549Z,3.67
2018-09-01T17:45:00.588Z,3.50
2018-09-01T17:47:29.617Z,3.43
2018-09-01T17:49:59.728Z,3.37
2018-09-01T17:52:28.830Z,4.53
2018-09-01T17:54:57.875Z,5.27
2018-09-01T17:57:26.921Z,5.80
2018-09-01T17:59:55.956Z,5.33
2018-09-01T18:02:25.226Z,4.07
2018-09-01T18:04:54.748Z,5.20
2018-09-01T18:07:23.946Z,4.67
2018-09-01T18:09:53.233Z,4.63
2018-09-01T18:12:22.267Z,3.40
2018-09-01T18:14:51.712Z,3.37
2018-09-01T18:17:20.771Z,3.67
2018-09-01T18:19:49.791Z,4.90
2018-09-01T18:22:18.845Z,3.77
2018-09-01T18:24:48.085Z,2.57
2018-09-01T18:27:17.485Z,2.07
2018-09-01T18:29:46.524Z,5.43
2018-09-01T18:32:15.540Z,3.57
2018-09-01T18:34:44.563Z,2.07
2018-09-01T18:37:13.608Z,3.50
2018-09-01T18:39:42.822Z,2.97
2018-09-01T18:42:11.884Z,5.50
2018-09-01T18:44:40.948Z,6.00
2018-09-01T18:47:10.039Z,3.10
2018-09-01T18:49:39.157Z,2.80
2018-09-01T18:52:08.432Z,6.07
2018-09-01T18:54:37.461Z,3.67
2018-09-01T18:57:06.548Z,4.30
2018-09-01T18:59:35.575Z,3.93
2018-09-01T19:02:04.952Z,3.87
2018-09-01T19:04:34.112Z,6.13
2018-09-01T19:07:03.919Z,8.23
2018-09-01T19:09:32.990Z,6.63
2018-09-01T19:12:02.020Z,3.27
2018-09-01T19:14:32.401Z,3.73
2018-09-01T19:17:01.527Z,4.37
2018-09-01T19:19:31.189Z,4.00
2018-09-01T19:22:00.229Z,3.50
2018-09-01T19:24:30.205Z,4.17
2018-09-01T19:26:59.291Z,4.27
2018-09-01T19:29:29.060Z,3.30
2018-09-01T19:31:58.194Z,3.80
2018-09-01T19:34:27.189Z,2.03
2018-09-01T19:36:56.515Z,2.53
2018-09-01T19:39:25.573Z,5.17
2018-09-01T19:41:54.600Z,4.00
2018-09-01T19:44:23.620Z,4.00
2018-09-01T19:46:52.670Z,4.10
2018-09-01T19:49:21.685Z,3.00
2018-09-01T19:51:50.671Z,3.80
2018-09-01T19:54:19.732Z,4.27
2018-09-01T19:56:48.816Z,3.23
2018-09-01T19:59:18.065Z,4.17
2018-09-01T20:01:47.133Z,3.63
2018-09-01T20:04:16.179Z,3.33
2018-09-01T20:06:45.239Z,3.43
2018-09-01T20:09:14.256Z,3.53
2018-09-01T20:11:43.525Z,3.97
2018-09-01T20:14:13.090Z,4.37
2018-09-01T20:16:43.184Z,3.40
2018-09-01T20:19:12.397Z,2.23
2018-09-01T20:21:41.508Z,3.57
2018-09-01T20:24:10.965Z,5.17
2018-09-01T20:26:40.068Z,3.10
2018-09-01T20:29:09.267Z,2.70
2018-09-01T20:31:38.258Z,3.63
2018-09-01T20:34:07.295Z,3.10
2018-09-01T20:36:36.316Z,4.03
2018-09-01T20:39:06.721Z,2.83
2018-09-01T20:41:35.727Z,6.53
2018-09-01T20:44:04.745Z,2.53
2018-09-01T20:46:33.949Z,4.13
2018-09-01T20:49:03.014Z,4.97
2018-09-01T20:51:32.008Z,4.33
2018-09-01T20:54:01.024Z,4.67
2018-09-01T20:56:30.111Z,2.67
2018-09-01T20:58:59.802Z,2.73
2018-09-01T21:01:29.113Z,4.70
2018-09-01T21:03:59.122Z,3.03
2018-09-01T21:06:28.200Z,3.13
2018-09-01T21:08:57.282Z,7.00
2018-09-01T21:11:26.699Z,2.17
2018-09-01T21:13:55.770Z,3.53
2018-09-01T21:16:25.052Z,5.50
2018-09-01T21:18:54.241Z,2.63
2018-09-01T21:21:23.964Z,5.27
2018-09-01T21:23:53.006Z,4.57
2018-09-01T21:26:22.087Z,3.77
2018-09-01T21:28:51.509Z,4.27
2018-09-01T21:31:20.538Z,2.63
2018-09-01T21:33:49.767Z,4.27
2018-09-01T21:36:18.817Z,2.80
2018-09-01T21:38:47.882Z,3.83
2018-09-01T21:41:16.945Z,4.67
2018-09-01T21:43:46.089Z,4.33
2018-09-01T21:46:15.148Z,4.07
2018-09-01T21:48:44.184Z,3.10
2018-09-01T21:51:13.258Z,4.17
2018-09-01T21:53:42.273Z,3.30
2018-09-01T21:56:11.345Z,2.33
2018-09-01T21:58:40.371Z,3.50
2018-09-01T22:01:14.670Z,8.00
2018-09-01T22:03:48.746Z,3.27
2018-09-01T22:06:18.958Z,4.00
2018-09-01T22:08:48.318Z,3.87
2018-09-01T22:11:18.061Z,2.37
2018-09-01T22:13:47.084Z,3.73
2018-09-01T22:16:16.125Z,2.50
2018-09-01T22:18:45.219Z,3.83
2018-09-01T22:21:14.264Z,3.20
2018-09-01T22:23:43.622Z,4.53
2018-09-01T22:26:12.885Z,4.87
2018-09-01T22:28:42.381Z,2.90
2018-09-01T22:31:11.835Z,3.13
2018-09-01T22:33:41.064Z,2.70
2018-09-01T22:36:10.118Z,5.00
2018-09-01T22:38:39.810Z,2.73
2018-09-01T22:41:09.085Z,3.83
2018-09-01T22:43:38.268Z,3.37
2018-09-01T22:46:07.313Z,3.37
2018-09-01T22:48:37.014Z,4.13
2018-09-01T22:51:06.031Z,3.47
2018-09-01T22:53:35.050Z,4.10
2018-09-01T22:56:04.092Z,2.73
2018-09-01T22:58:33.122Z,5.20
2018-09-01T23:01:03.002Z,3.00
2018-09-01T23:03:32.044Z,5.20
2018-09-01T23:06:01.325Z,5.10
2018-09-01T23:08:30.339Z,2.07
2018-09-01T23:10:59.364Z,3.60
2018-09-01T23:13:28.599Z,4.97
2018-09-01T23:15:57.585Z,3.20
2018-09-01T23:18:26.889Z,3.87
2018-09-01T23:20:55.996Z,3.13
2018-09-01T23:23:25.013Z,1.80
2018-09-01T23:25:54.039Z,5.03
2018-09-01T23:28:23.020Z,4.60
2018-09-01T23:30:52.085Z,3.43
2018-09-01T23:33:21.152Z,4.20
2018-09-01T23:35:50.408Z,4.83
2018-09-01T23:38:19.481Z,3.63
2018-09-01T23:40:48.722Z,3.37
2018-09-01T23:43:17.764Z,2.57
2018-09-01T23:45:46.797Z,3.50
2018-09-01T23:48:15.922Z,6.43
2018-09-01T23:50:44.938Z,3.27
2018-09-01T23:53:13.926Z,3.60
2018-09-01T23:55:42.975Z,4.13
2018-09-01T23:58:11.931Z,2.87
